sensor_id;sensor_type;location;lat;lon;timestamp;temperature;humidity
49042;DHT22;34859;51.608;11.462;2023-07-29T00:01:37;19.30;99.90
49042;DHT22;34859;51.608;11.462;2023-07-29T00:04:07;19.30;99.90
49042;DHT22;34859;51.608;11.462;2023-07-29T00:06:34;19.30;99.90
49042;DHT22;34859;51.608;11.462;2023-07-29T00:08:59;19.30;99.90
49042;DHT22;34859;51.608;11.462;2023-07-29T00:11:28;19.30;99.90
49042;DHT22;34859;51.608;11.462;2023-07-29T00:13:53;19.30;99.90
49042;DHT22;34859;51.608;11.462;2023-07-29T00:16:19;19.30;99.90
49042;DHT22;34859;51.608;11.462;2023-07-29T00:18:50;19.30;99.90
49042;DHT22;34859;51.608;11.462;2023-07-29T00:21:17;19.30;99.90
49042;DHT22;34859;51.608;11.462;2023-07-29T00:23:42;19.30;99.90
49042;DHT22;34859;51.608;11.462;2023-07-29T00:26:08;19.30;99.90
49042;DHT22;34859;51.608;11.462;2023-07-29T00:28:34;19.30;99.90
49042;DHT22;34859;51.608;11.462;2023-07-29T00:30:59;19.30;99.90
49042;DHT22;34859;51.608;11.462;2023-07-29T00:33:25;19.30;99.90
49042;DHT22;34859;51.608;11.462;2023-07-29T00:35:50;19.30;99.90
49042;DHT22;34859;51.608;11.462;2023-07-29T00:38:17;19.30;99.90
49042;DHT22;34859;51.608;11.462;2023-07-29T00:40:42;19.40;99.90
49042;DHT22;34859;51.608;11.462;2023-07-29T00:43:08;19.30;99.90
49042;DHT22;34859;51.608;11.462;2023-07-29T00:45:53;19.40;99.90
49042;DHT22;34859;51.608;11.462;2023-07-29T00:48:19;19.40;99.90
49042;DHT22;34859;51.608;11.462;2023-07-29T00:50:45;19.40;99.90
49042;DHT22;34859;51.608;11.462;2023-07-29T00:53:10;19.40;99.90
49042;DHT22;34859;51.608;11.462;2023-07-29T00:55:37;19.40;99.90
49042;DHT22;34859;51.608;11.462;2023-07-29T00:58:02;19.50;99.90
49042;DHT22;34859;51.608;11.462;2023-07-29T01:00:28;19.50;99.90
49042;DHT22;34859;51.608;11.462;2023-07-29T01:02:54;19.50;99.90
49042;DHT22;34859;51.608;11.462;2023-07-29T01:05:20;19.50;99.90
49042;DHT22;34859;51.608;11.462;2023-07-29T01:12:54;19.50;99.90
49042;DHT22;34859;51.608;11.462;2023-07-29T01:18:04;19.50;99.90
49042;DHT22;34859;51.608;11.462;2023-07-29T01:20:32;19.40;99.90
49042;DHT22;34859;51.608;11.462;2023-07-29T01:22:58;19.40;99.90
49042;DHT22;34859;51.608;11.462;2023-07-29T01:25:23;19.40;99.90
49042;DHT22;34859;51.608;11.462;2023-07-29T01:27:51;19.40;99.90
49042;DHT22;34859;51.608;11.462;2023-07-29T01:30:18;19.40;99.90
49042;DHT22;34859;51.608;11.462;2023-07-29T01:35:36;19.30;99.90
49042;DHT22;34859;51.608;11.462;2023-07-29T01:38:14;19.30;99.90
49042;DHT22;34859;51.608;11.462;2023-07-29T01:40:42;19.20;99.90
49042;DHT22;34859;51.608;11.462;2023-07-29T01:43:08;19.20;99.90
49042;DHT22;34859;51.608;11.462;2023-07-29T01:45:34;19.10;99.90
49042;DHT22;34859;51.608;11.462;2023-07-29T01:48:06;19.10;99.90
49042;DHT22;34859;51.608;11.462;2023-07-29T01:50:33;19.10;99.90
49042;DHT22;34859;51.608;11.462;2023-07-29T01:52:58;19.00;99.90
49042;DHT22;34859;51.608;11.462;2023-07-29T01:55:24;19.00;99.90
49042;DHT22;34859;51.608;11.462;2023-07-29T01:57:50;18.90;99.90
49042;DHT22;34859;51.608;11.462;2023-07-29T02:00:21;18.80;99.90
49042;DHT22;34859;51.608;11.462;2023-07-29T02:02:47;18.70;99.90
49042;DHT22;34859;51.608;11.462;2023-07-29T02:05:12;18.60;99.90
49042;DHT22;34859;51.608;11.462;2023-07-29T02:07:38;18.50;99.90
49042;DHT22;34859;51.608;11.462;2023-07-29T02:10:04;18.50;99.90
49042;DHT22;34859;51.608;11.462;2023-07-29T02:12:45;18.50;99.90
49042;DHT22;34859;51.608;11.462;2023-07-29T02:15:11;18.50;99.90
49042;DHT22;34859;51.608;11.462;2023-07-29T02:17:41;18.50;99.90
49042;DHT22;34859;51.608;11.462;2023-07-29T02:20:07;18.40;99.90
49042;DHT22;34859;51.608;11.462;2023-07-29T02:22:32;18.40;99.90
49042;DHT22;34859;51.608;11.462;2023-07-29T02:24:58;18.30;99.90
49042;DHT22;34859;51.608;11.462;2023-07-29T02:27:24;18.20;99.90
49042;DHT22;34859;51.608;11.462;2023-07-29T02:29:52;18.20;99.90
49042;DHT22;34859;51.608;11.462;2023-07-29T02:32:18;18.20;99.90
49042;DHT22;34859;51.608;11.462;2023-07-29T02:34:44;18.20;99.90
49042;DHT22;34859;51.608;11.462;2023-07-29T02:37:10;18.10;99.90
49042;DHT22;34859;51.608;11.462;2023-07-29T02:39:37;18.10;99.90
49042;DHT22;34859;51.608;11.462;2023-07-29T02:42:03;18.20;99.90
49042;DHT22;34859;51.608;11.462;2023-07-29T02:44:29;18.20;99.90
49042;DHT22;34859;51.608;11.462;2023-07-29T02:46:54;18.10;99.90
49042;DHT22;34859;51.608;11.462;2023-07-29T02:49:21;18.20;99.90
49042;DHT22;34859;51.608;11.462;2023-07-29T02:51:47;18.20;99.90
49042;DHT22;34859;51.608;11.462;2023-07-29T02:54:12;18.20;99.90
49042;DHT22;34859;51.608;11.462;2023-07-29T02:56:42;18.30;99.90
49042;DHT22;34859;51.608;11.462;2023-07-29T02:59:08;18.30;99.90
49042;DHT22;34859;51.608;11.462;2023-07-29T03:01:34;18.30;99.90
49042;DHT22;34859;51.608;11.462;2023-07-29T03:03:59;18.30;99.90
49042;DHT22;34859;51.608;11.462;2023-07-29T03:06:25;18.30;99.90
49042;DHT22;34859;51.608;11.462;2023-07-29T03:08:50;18.30;99.90
49042;DHT22;34859;51.608;11.462;2023-07-29T03:11:20;18.40;99.90
49042;DHT22;34859;51.608;11.462;2023-07-29T03:13:47;18.40;99.90
49042;DHT22;34859;51.608;11.462;2023-07-29T03:16:14;18.40;99.90
49042;DHT22;34859;51.608;11.462;2023-07-29T03:18:40;18.40;99.90
49042;DHT22;34859;51.608;11.462;2023-07-29T03:21:09;18.40;99.90
49042;DHT22;34859;51.608;11.462;2023-07-29T03:23:34;18.40;99.90
49042;DHT22;34859;51.608;11.462;2023-07-29T03:26:00;18.40;99.90
49042;DHT22;34859;51.608;11.462;2023-07-29T03:28:32;18.40;99.90
49042;DHT22;34859;51.608;11.462;2023-07-29T03:30:58;18.40;99.90
49042;DHT22;34859;51.608;11.462;2023-07-29T03:33:24;18.40;99.90
49042;DHT22;34859;51.608;11.462;2023-07-29T03:35:50;18.40;99.90
49042;DHT22;34859;51.608;11.462;2023-07-29T03:38:17;18.40;99.90
49042;DHT22;34859;51.608;11.462;2023-07-29T03:40:43;18.40;99.90
49042;DHT22;34859;51.608;11.462;2023-07-29T03:43:08;18.40;99.90
49042;DHT22;34859;51.608;11.462;2023-07-29T03:45:34;18.40;99.90
49042;DHT22;34859;51.608;11.462;2023-07-29T03:48:00;18.50;99.90
49042;DHT22;34859;51.608;11.462;2023-07-29T03:50:28;18.50;99.90
49042;DHT22;34859;51.608;11.462;2023-07-29T03:52:53;18.50;99.90
49042;DHT22;34859;51.608;11.462;2023-07-29T03:55:19;18.50;99.90
49042;DHT22;34859;51.608;11.462;2023-07-29T03:57:47;18.60;99.90
49042;DHT22;34859;51.608;11.462;2023-07-29T04:00:12;18.60;99.90
49042;DHT22;34859;51.608;11.462;2023-07-29T04:02:38;18.60;99.90
49042;DHT22;34859;51.608;11.462;2023-07-29T04:05:04;18.70;99.90
49042;DHT22;34859;51.608;11.462;2023-07-29T04:07:30;18.70;99.90
49042;DHT22;34859;51.608;11.462;2023-07-29T04:09:57;18.70;99.90
49042;DHT22;34859;51.608;11.462;2023-07-29T04:12:43;18.80;99.90
49042;DHT22;34859;51.608;11.462;2023-07-29T04:15:28;18.80;99.90
49042;DHT22;34859;51.608;11.462;2023-07-29T04:18:15;18.80;99.90
49042;DHT22;34859;51.608;11.462;2023-07-29T04:21:00;18.80;99.90
49042;DHT22;34859;51.608;11.462;2023-07-29T04:23:46;18.80;99.90
49042;DHT22;34859;51.608;11.462;2023-07-29T04:26:31;18.90;99.90
49042;DHT22;34859;51.608;11.462;2023-07-29T04:28:57;19.00;99.90
49042;DHT22;34859;51.608;11.462;2023-07-29T04:31:23;19.00;99.90
49042;DHT22;34859;51.608;11.462;2023-07-29T04:33:49;19.00;99.90
49042;DHT22;34859;51.608;11.462;2023-07-29T04:36:15;19.00;99.90
49042;DHT22;34859;51.608;11.462;2023-07-29T04:38:40;19.10;99.90
49042;DHT22;34859;51.608;11.462;2023-07-29T04:41:07;19.10;99.90
49042;DHT22;34859;51.608;11.462;2023-07-29T04:43:34;19.10;99.90
49042;DHT22;34859;51.608;11.462;2023-07-29T04:46:00;19.20;99.90
49042;DHT22;34859;51.608;11.462;2023-07-29T04:48:29;19.20;99.90
49042;DHT22;34859;51.608;11.462;2023-07-29T04:50:55;19.30;99.90
49042;DHT22;34859;51.608;11.462;2023-07-29T04:53:20;19.40;99.90
49042;DHT22;34859;51.608;11.462;2023-07-29T04:55:47;19.50;99.90
49042;DHT22;34859;51.608;11.462;2023-07-29T04:58:12;19.50;99.90
49042;DHT22;34859;51.608;11.462;2023-07-29T05:00:38;19.50;99.90
49042;DHT22;34859;51.608;11.462;2023-07-29T05:03:03;19.60;99.90
49042;DHT22;34859;51.608;11.462;2023-07-29T05:05:29;19.60;99.90
49042;DHT22;34859;51.608;11.462;2023-07-29T05:07:55;19.60;99.90
49042;DHT22;34859;51.608;11.462;2023-07-29T05:10:21;19.60;99.90
49042;DHT22;34859;51.608;11.462;2023-07-29T05:12:47;19.60;99.90
49042;DHT22;34859;51.608;11.462;2023-07-29T05:15:13;19.60;99.90
49042;DHT22;34859;51.608;11.462;2023-07-29T05:17:38;19.60;99.90
49042;DHT22;34859;51.608;11.462;2023-07-29T05:20:04;19.60;99.90
49042;DHT22;34859;51.608;11.462;2023-07-29T05:22:30;19.60;99.90
49042;DHT22;34859;51.608;11.462;2023-07-29T05:24:57;19.60;99.90
49042;DHT22;34859;51.608;11.462;2023-07-29T05:27:22;19.60;99.90
49042;DHT22;34859;51.608;11.462;2023-07-29T05:29:48;19.60;99.90
49042;DHT22;34859;51.608;11.462;2023-07-29T05:32:14;19.60;99.90
49042;DHT22;34859;51.608;11.462;2023-07-29T05:34:39;19.60;99.90
49042;DHT22;34859;51.608;11.462;2023-07-29T05:37:05;19.60;99.90
49042;DHT22;34859;51.608;11.462;2023-07-29T05:39:31;19.60;99.90
49042;DHT22;34859;51.608;11.462;2023-07-29T05:41:57;19.60;99.90
49042;DHT22;34859;51.608;11.462;2023-07-29T05:44:23;19.60;99.90
49042;DHT22;34859;51.608;11.462;2023-07-29T05:46:48;19.60;99.90
49042;DHT22;34859;51.608;11.462;2023-07-29T05:49:14;19.50;99.90
49042;DHT22;34859;51.608;11.462;2023-07-29T05:51:40;19.50;99.90
49042;DHT22;34859;51.608;11.462;2023-07-29T05:54:25;19.60;99.90
49042;DHT22;34859;51.608;11.462;2023-07-29T05:57:11;19.60;99.90
49042;DHT22;34859;51.608;11.462;2023-07-29T05:59:37;19.70;99.90
49042;DHT22;34859;51.608;11.462;2023-07-29T06:02:03;19.70;99.90
49042;DHT22;34859;51.608;11.462;2023-07-29T06:04:29;19.90;99.90
49042;DHT22;34859;51.608;11.462;2023-07-29T06:06:55;20.00;99.90
49042;DHT22;34859;51.608;11.462;2023-07-29T06:09:21;20.00;99.90
49042;DHT22;34859;51.608;11.462;2023-07-29T06:11:48;20.00;99.90
49042;DHT22;34859;51.608;11.462;2023-07-29T06:14:14;20.00;99.90
49042;DHT22;34859;51.608;11.462;2023-07-29T06:16:39;20.10;99.90
49042;DHT22;34859;51.608;11.462;2023-07-29T06:19:05;20.20;99.90
49042;DHT22;34859;51.608;11.462;2023-07-29T06:21:31;20.20;99.90
49042;DHT22;34859;51.608;11.462;2023-07-29T06:23:57;20.10;99.90
49042;DHT22;34859;51.608;11.462;2023-07-29T06:26:22;20.10;99.90
49042;DHT22;34859;51.608;11.462;2023-07-29T06:28:49;20.00;99.90
49042;DHT22;34859;51.608;11.462;2023-07-29T06:31:15;20.00;99.90
49042;DHT22;34859;51.608;11.462;2023-07-29T06:33:40;20.00;99.90
49042;DHT22;34859;51.608;11.462;2023-07-29T06:36:07;20.00;99.90
49042;DHT22;34859;51.608;11.462;2023-07-29T06:38:32;20.00;99.90
49042;DHT22;34859;51.608;11.462;2023-07-29T06:40:58;20.00;99.90
49042;DHT22;34859;51.608;11.462;2023-07-29T06:43:23;20.00;99.90
49042;DHT22;34859;51.608;11.462;2023-07-29T06:45:49;20.10;99.90
49042;DHT22;34859;51.608;11.462;2023-07-29T06:48:15;20.10;99.90
49042;DHT22;34859;51.608;11.462;2023-07-29T06:50:40;20.10;99.90
49042;DHT22;34859;51.608;11.462;2023-07-29T06:53:07;20.20;99.90
49042;DHT22;34859;51.608;11.462;2023-07-29T06:55:32;20.20;99.90
49042;DHT22;34859;51.608;11.462;2023-07-29T06:57:58;20.10;99.90
49042;DHT22;34859;51.608;11.462;2023-07-29T07:00:23;20.20;99.90
49042;DHT22;34859;51.608;11.462;2023-07-29T07:02:49;20.20;99.90
49042;DHT22;34859;51.608;11.462;2023-07-29T07:05:15;20.20;99.90
49042;DHT22;34859;51.608;11.462;2023-07-29T07:07:40;20.20;99.90
49042;DHT22;34859;51.608;11.462;2023-07-29T07:10:07;20.30;99.90
49042;DHT22;34859;51.608;11.462;2023-07-29T07:12:32;20.40;99.90
49042;DHT22;34859;51.608;11.462;2023-07-29T07:14:59;20.40;99.90
49042;DHT22;34859;51.608;11.462;2023-07-29T07:17:25;20.50;99.90
49042;DHT22;34859;51.608;11.462;2023-07-29T07:19:50;20.60;99.90
49042;DHT22;34859;51.608;11.462;2023-07-29T07:22:17;20.70;99.90
49042;DHT22;34859;51.608;11.462;2023-07-29T07:24:42;20.90;99.90
49042;DHT22;34859;51.608;11.462;2023-07-29T07:27:08;20.90;99.90
49042;DHT22;34859;51.608;11.462;2023-07-29T07:29:33;21.00;99.90
49042;DHT22;34859;51.608;11.462;2023-07-29T07:31:59;21.10;99.90
49042;DHT22;34859;51.608;11.462;2023-07-29T07:34:25;21.20;99.90
49042;DHT22;34859;51.608;11.462;2023-07-29T07:36:50;21.30;99.90
49042;DHT22;34859;51.608;11.462;2023-07-29T07:39:17;21.40;99.90
49042;DHT22;34859;51.608;11.462;2023-07-29T07:41:42;21.40;99.90
49042;DHT22;34859;51.608;11.462;2023-07-29T07:44:08;21.50;99.90
49042;DHT22;34859;51.608;11.462;2023-07-29T07:46:34;21.50;99.90
49042;DHT22;34859;51.608;11.462;2023-07-29T07:48:59;21.50;99.90
49042;DHT22;34859;51.608;11.462;2023-07-29T07:51:25;21.60;99.90
49042;DHT22;34859;51.608;11.462;2023-07-29T07:53:51;21.60;99.90
49042;DHT22;34859;51.608;11.462;2023-07-29T07:56:19;21.60;99.90
49042;DHT22;34859;51.608;11.462;2023-07-29T07:58:45;21.60;99.90
49042;DHT22;34859;51.608;11.462;2023-07-29T08:01:10;21.60;99.90
49042;DHT22;34859;51.608;11.462;2023-07-29T08:03:37;21.60;99.90
49042;DHT22;34859;51.608;11.462;2023-07-29T08:06:07;21.70;99.90
49042;DHT22;34859;51.608;11.462;2023-07-29T08:08:33;21.70;99.90
49042;DHT22;34859;51.608;11.462;2023-07-29T08:10:58;21.70;99.90
49042;DHT22;34859;51.608;11.462;2023-07-29T08:13:24;21.60;99.90
49042;DHT22;34859;51.608;11.462;2023-07-29T08:15:50;21.60;99.90
49042;DHT22;34859;51.608;11.462;2023-07-29T08:18:17;21.50;99.90
49042;DHT22;34859;51.608;11.462;2023-07-29T08:20:55;21.60;99.90
49042;DHT22;34859;51.608;11.462;2023-07-29T08:23:24;21.60;99.90
49042;DHT22;34859;51.608;11.462;2023-07-29T08:25:59;21.70;99.90
49042;DHT22;34859;51.608;11.462;2023-07-29T08:28:29;21.90;99.90
49042;DHT22;34859;51.608;11.462;2023-07-29T08:30:57;21.90;99.90
49042;DHT22;34859;51.608;11.462;2023-07-29T08:33:23;22.00;99.90
49042;DHT22;34859;51.608;11.462;2023-07-29T08:35:49;22.10;99.90
49042;DHT22;34859;51.608;11.462;2023-07-29T08:38:14;22.30;99.90
49042;DHT22;34859;51.608;11.462;2023-07-29T08:40:42;22.50;99.90
49042;DHT22;34859;51.608;11.462;2023-07-29T08:43:08;22.50;99.90
49042;DHT22;34859;51.608;11.462;2023-07-29T08:45:35;22.40;99.90
49042;DHT22;34859;51.608;11.462;2023-07-29T08:48:02;22.40;99.90
49042;DHT22;34859;51.608;11.462;2023-07-29T08:50:29;22.50;99.90
49042;DHT22;34859;51.608;11.462;2023-07-29T08:52:57;22.50;99.90
49042;DHT22;34859;51.608;11.462;2023-07-29T08:55:23;22.50;99.90
49042;DHT22;34859;51.608;11.462;2023-07-29T08:57:49;22.50;99.90
49042;DHT22;34859;51.608;11.462;2023-07-29T09:00:14;22.40;99.90
49042;DHT22;34859;51.608;11.462;2023-07-29T09:02:40;22.50;99.90
49042;DHT22;34859;51.608;11.462;2023-07-29T09:05:07;22.50;99.90
49042;DHT22;34859;51.608;11.462;2023-07-29T09:07:33;22.50;99.90
49042;DHT22;34859;51.608;11.462;2023-07-29T09:09:59;22.50;99.90
49042;DHT22;34859;51.608;11.462;2023-07-29T09:12:25;22.50;99.90
49042;DHT22;34859;51.608;11.462;2023-07-29T09:14:53;22.50;99.90
49042;DHT22;34859;51.608;11.462;2023-07-29T09:17:20;22.50;99.90
49042;DHT22;34859;51.608;11.462;2023-07-29T09:19:50;22.50;99.90
49042;DHT22;34859;51.608;11.462;2023-07-29T09:22:19;22.50;99.90
49042;DHT22;34859;51.608;11.462;2023-07-29T09:24:47;22.50;99.90
49042;DHT22;34859;51.608;11.462;2023-07-29T09:27:28;22.50;99.90
49042;DHT22;34859;51.608;11.462;2023-07-29T09:29:55;22.60;99.90
49042;DHT22;34859;51.608;11.462;2023-07-29T09:32:22;22.60;99.90
49042;DHT22;34859;51.608;11.462;2023-07-29T09:34:48;22.50;99.90
49042;DHT22;34859;51.608;11.462;2023-07-29T09:37:17;22.50;99.90
49042;DHT22;34859;51.608;11.462;2023-07-29T09:39:47;22.40;99.90
49042;DHT22;34859;51.608;11.462;2023-07-29T09:42:20;22.40;99.90
49042;DHT22;34859;51.608;11.462;2023-07-29T09:44:50;22.40;99.90
49042;DHT22;34859;51.608;11.462;2023-07-29T09:47:24;22.50;99.90
49042;DHT22;34859;51.608;11.462;2023-07-29T09:49:50;22.60;99.90
49042;DHT22;34859;51.608;11.462;2023-07-29T09:52:22;22.60;99.90
49042;DHT22;34859;51.608;11.462;2023-07-29T09:54:48;22.60;99.90
49042;DHT22;34859;51.608;11.462;2023-07-29T09:57:14;22.60;99.90
49042;DHT22;34859;51.608;11.462;2023-07-29T09:59:40;22.60;99.90
49042;DHT22;34859;51.608;11.462;2023-07-29T10:02:10;22.60;99.90
49042;DHT22;34859;51.608;11.462;2023-07-29T10:04:38;22.50;99.90
49042;DHT22;34859;51.608;11.462;2023-07-29T10:07:05;22.50;99.90
49042;DHT22;34859;51.608;11.462;2023-07-29T10:09:30;22.40;99.90
49042;DHT22;34859;51.608;11.462;2023-07-29T10:12:00;22.40;99.90
49042;DHT22;34859;51.608;11.462;2023-07-29T10:14:28;22.40;99.90
49042;DHT22;34859;51.608;11.462;2023-07-29T10:17:12;22.50;99.90
49042;DHT22;34859;51.608;11.462;2023-07-29T10:19:38;22.50;99.90
49042;DHT22;34859;51.608;11.462;2023-07-29T10:22:04;22.60;99.90
49042;DHT22;34859;51.608;11.462;2023-07-29T10:24:32;22.70;99.90
49042;DHT22;34859;51.608;11.462;2023-07-29T10:26:58;22.80;99.90
49042;DHT22;34859;51.608;11.462;2023-07-29T10:29:24;22.90;99.90
49042;DHT22;34859;51.608;11.462;2023-07-29T10:31:53;23.10;99.90
49042;DHT22;34859;51.608;11.462;2023-07-29T10:34:19;23.20;99.90
49042;DHT22;34859;51.608;11.462;2023-07-29T10:36:47;23.30;99.90
49042;DHT22;34859;51.608;11.462;2023-07-29T10:39:13;23.40;99.90
49042;DHT22;34859;51.608;11.462;2023-07-29T10:47:13;23.30;99.90
49042;DHT22;34859;51.608;11.462;2023-07-29T10:49:43;23.30;99.90
49042;DHT22;34859;51.608;11.462;2023-07-29T10:52:14;23.10;99.90
49042;DHT22;34859;51.608;11.462;2023-07-29T10:54:44;23.00;99.90
49042;DHT22;34859;51.608;11.462;2023-07-29T10:57:16;22.80;99.90
49042;DHT22;34859;51.608;11.462;2023-07-29T11:00:08;22.60;99.90
49042;DHT22;34859;51.608;11.462;2023-07-29T11:02:37;22.60;99.90
49042;DHT22;34859;51.608;11.462;2023-07-29T11:05:07;22.50;99.90
49042;DHT22;34859;51.608;11.462;2023-07-29T11:07:43;22.50;99.90
49042;DHT22;34859;51.608;11.462;2023-07-29T11:10:08;22.50;99.90
49042;DHT22;34859;51.608;11.462;2023-07-29T11:12:44;22.50;99.90
49042;DHT22;34859;51.608;11.462;2023-07-29T11:17:41;22.40;99.90
49042;DHT22;34859;51.608;11.462;2023-07-29T11:20:07;22.50;99.90
49042;DHT22;34859;51.608;11.462;2023-07-29T11:22:33;22.50;99.90
49042;DHT22;34859;51.608;11.462;2023-07-29T11:24:59;22.60;99.90
49042;DHT22;34859;51.608;11.462;2023-07-29T11:27:28;22.70;99.90
49042;DHT22;34859;51.608;11.462;2023-07-29T11:29:57;22.80;99.90
49042;DHT22;34859;51.608;11.462;2023-07-29T11:32:23;22.80;99.90
49042;DHT22;34859;51.608;11.462;2023-07-29T11:34:49;22.90;99.90
49042;DHT22;34859;51.608;11.462;2023-07-29T11:37:15;23.00;99.90
49042;DHT22;34859;51.608;11.462;2023-07-29T11:39:41;23.00;99.90
49042;DHT22;34859;51.608;11.462;2023-07-29T11:42:10;23.10;99.90
49042;DHT22;34859;51.608;11.462;2023-07-29T11:44:56;23.20;99.90
49042;DHT22;34859;51.608;11.462;2023-07-29T11:47:42;23.30;99.90
49042;DHT22;34859;51.608;11.462;2023-07-29T11:50:28;23.70;99.90
49042;DHT22;34859;51.608;11.462;2023-07-29T11:53:11;24.20;99.90
49042;DHT22;34859;51.608;11.462;2023-07-29T11:55:38;24.10;99.90
49042;DHT22;34859;51.608;11.462;2023-07-29T11:58:04;24.00;99.90
49042;DHT22;34859;51.608;11.462;2023-07-29T12:00:30;24.00;99.90
49042;DHT22;34859;51.608;11.462;2023-07-29T12:02:59;24.10;99.90
49042;DHT22;34859;51.608;11.462;2023-07-29T12:05:28;24.20;99.90
49042;DHT22;34859;51.608;11.462;2023-07-29T12:07:53;24.10;99.90
49042;DHT22;34859;51.608;11.462;2023-07-29T12:10:19;24.10;99.90
49042;DHT22;34859;51.608;11.462;2023-07-29T12:12:48;24.10;99.90
49042;DHT22;34859;51.608;11.462;2023-07-29T12:15:22;24.10;99.90
49042;DHT22;34859;51.608;11.462;2023-07-29T12:17:48;24.10;99.90
49042;DHT22;34859;51.608;11.462;2023-07-29T12:20:13;24.20;99.90
49042;DHT22;34859;51.608;11.462;2023-07-29T12:22:39;24.10;99.90
49042;DHT22;34859;51.608;11.462;2023-07-29T12:25:05;24.30;99.90
49042;DHT22;34859;51.608;11.462;2023-07-29T12:27:32;24.40;99.90
49042;DHT22;34859;51.608;11.462;2023-07-29T12:29:57;24.40;99.90
49042;DHT22;34859;51.608;11.462;2023-07-29T12:32:28;24.30;99.90
49042;DHT22;34859;51.608;11.462;2023-07-29T12:34:54;24.10;99.90
49042;DHT22;34859;51.608;11.462;2023-07-29T12:37:20;24.00;99.90
49042;DHT22;34859;51.608;11.462;2023-07-29T12:39:49;23.90;99.90
49042;DHT22;34859;51.608;11.462;2023-07-29T12:42:15;23.80;99.90
49042;DHT22;34859;51.608;11.462;2023-07-29T12:44:41;23.80;99.90
49042;DHT22;34859;51.608;11.462;2023-07-29T12:47:07;23.80;99.90
49042;DHT22;34859;51.608;11.462;2023-07-29T12:49:34;24.00;99.90
49042;DHT22;34859;51.608;11.462;2023-07-29T12:52:00;24.10;99.90
49042;DHT22;34859;51.608;11.462;2023-07-29T12:54:28;24.10;99.90
49042;DHT22;34859;51.608;11.462;2023-07-29T12:57:02;24.10;99.90
49042;DHT22;34859;51.608;11.462;2023-07-29T12:59:28;24.30;99.90
49042;DHT22;34859;51.608;11.462;2023-07-29T13:01:53;24.40;99.90
49042;DHT22;34859;51.608;11.462;2023-07-29T13:04:19;24.40;99.90
49042;DHT22;34859;51.608;11.462;2023-07-29T13:06:44;24.40;99.90
49042;DHT22;34859;51.608;11.462;2023-07-29T13:09:10;24.30;99.90
49042;DHT22;34859;51.608;11.462;2023-07-29T13:11:37;24.50;99.90
49042;DHT22;34859;51.608;11.462;2023-07-29T13:14:02;24.70;99.90
49042;DHT22;34859;51.608;11.462;2023-07-29T13:16:28;25.00;99.90
49042;DHT22;34859;51.608;11.462;2023-07-29T13:19:14;25.20;99.90
49042;DHT22;34859;51.608;11.462;2023-07-29T13:21:39;25.30;99.90
49042;DHT22;34859;51.608;11.462;2023-07-29T13:24:08;25.00;99.90
49042;DHT22;34859;51.608;11.462;2023-07-29T13:26:34;24.60;99.90
49042;DHT22;34859;51.608;11.462;2023-07-29T13:28:59;24.40;99.90
49042;DHT22;34859;51.608;11.462;2023-07-29T13:31:28;24.10;99.90
49042;DHT22;34859;51.608;11.462;2023-07-29T13:33:53;23.70;99.90
49042;DHT22;34859;51.608;11.462;2023-07-29T13:36:20;23.20;99.90
49042;DHT22;34859;51.608;11.462;2023-07-29T13:38:47;22.70;99.90
49042;DHT22;34859;51.608;11.462;2023-07-29T13:41:12;22.50;99.90
49042;DHT22;34859;51.608;11.462;2023-07-29T13:43:38;22.60;99.90
49042;DHT22;34859;51.608;11.462;2023-07-29T13:46:04;22.60;99.90
49042;DHT22;34859;51.608;11.462;2023-07-29T13:48:29;22.60;99.90
49042;DHT22;34859;51.608;11.462;2023-07-29T13:50:57;22.70;99.90
49042;DHT22;34859;51.608;11.462;2023-07-29T13:53:22;22.80;99.90
49042;DHT22;34859;51.608;11.462;2023-07-29T13:55:48;22.80;99.90
49042;DHT22;34859;51.608;11.462;2023-07-29T13:58:14;22.70;99.90
49042;DHT22;34859;51.608;11.462;2023-07-29T14:00:40;22.80;99.90
49042;DHT22;34859;51.608;11.462;2023-07-29T14:03:07;22.90;99.90
49042;DHT22;34859;51.608;11.462;2023-07-29T14:05:33;23.00;99.90
49042;DHT22;34859;51.608;11.462;2023-07-29T14:07:59;23.00;99.90
49042;DHT22;34859;51.608;11.462;2023-07-29T14:10:25;23.10;99.90
49042;DHT22;34859;51.608;11.462;2023-07-29T14:12:51;23.10;99.90
49042;DHT22;34859;51.608;11.462;2023-07-29T14:15:17;23.10;99.90
49042;DHT22;34859;51.608;11.462;2023-07-29T14:17:42;23.00;99.90
49042;DHT22;34859;51.608;11.462;2023-07-29T14:20:08;22.90;99.90
49042;DHT22;34859;51.608;11.462;2023-07-29T14:22:35;22.90;99.90
49042;DHT22;34859;51.608;11.462;2023-07-29T14:25:00;22.90;99.90
49042;DHT22;34859;51.608;11.462;2023-07-29T14:27:28;23.00;99.90
49042;DHT22;34859;51.608;11.462;2023-07-29T14:29:53;23.00;99.90
49042;DHT22;34859;51.608;11.462;2023-07-29T14:32:19;23.00;99.90
49042;DHT22;34859;51.608;11.462;2023-07-29T14:34:44;23.10;99.90
49042;DHT22;34859;51.608;11.462;2023-07-29T14:37:10;23.10;99.90
49042;DHT22;34859;51.608;11.462;2023-07-29T14:39:40;23.30;99.90
49042;DHT22;34859;51.608;11.462;2023-07-29T14:42:07;23.40;99.90
49042;DHT22;34859;51.608;11.462;2023-07-29T14:44:33;23.40;99.90
49042;DHT22;34859;51.608;11.462;2023-07-29T14:46:58;23.60;99.90
49042;DHT22;34859;51.608;11.462;2023-07-29T14:49:24;23.80;99.90
49042;DHT22;34859;51.608;11.462;2023-07-29T14:51:50;24.00;99.90
49042;DHT22;34859;51.608;11.462;2023-07-29T14:54:17;24.00;99.90
49042;DHT22;34859;51.608;11.462;2023-07-29T14:56:42;23.90;99.90
49042;DHT22;34859;51.608;11.462;2023-07-29T14:59:08;23.80;99.90
49042;DHT22;34859;51.608;11.462;2023-07-29T15:01:34;23.80;99.90
49042;DHT22;34859;51.608;11.462;2023-07-29T15:03:59;23.90;99.90
49042;DHT22;34859;51.608;11.462;2023-07-29T15:06:25;23.90;99.90
49042;DHT22;34859;51.608;11.462;2023-07-29T15:08:50;23.80;99.90
49042;DHT22;34859;51.608;11.462;2023-07-29T15:11:18;23.80;99.90
49042;DHT22;34859;51.608;11.462;2023-07-29T15:13:43;23.90;99.90
49042;DHT22;34859;51.608;11.462;2023-07-29T15:16:09;24.10;99.90
49042;DHT22;34859;51.608;11.462;2023-07-29T15:18:35;24.30;99.90
49042;DHT22;34859;51.608;11.462;2023-07-29T15:21:00;24.50;99.90
49042;DHT22;34859;51.608;11.462;2023-07-29T15:23:28;24.60;99.90
49042;DHT22;34859;51.608;11.462;2023-07-29T15:25:53;24.50;99.90
49042;DHT22;34859;51.608;11.462;2023-07-29T15:28:19;24.40;99.90
49042;DHT22;34859;51.608;11.462;2023-07-29T15:30:44;24.30;99.90
49042;DHT22;34859;51.608;11.462;2023-07-29T15:33:10;24.20;99.90
49042;DHT22;34859;51.608;11.462;2023-07-29T15:35:37;24.10;99.90